Time;durP1;ratioP1;P1;durP2;ratioP2;P2;SDS_P1;SDS_P2;PMS_P1;PMS_P2;Temp;Humidity;BMP_temperature;BMP_pressure;BME280_temperature;BME280_humidity;BME280_pressure;Samples;Min_cycle;Max_cycle;Signal;HPM_P1;HPM_P2
2024/01/05 00:02:24;;;;;;;11.95;3.50;;;;;;;7.13;100.00;99885.06;5130712;27;20045;-35
2024/01/05 00:04:50;;;;;;;12.77;3.40;;;;;;;7.16;100.00;99889.94;5130827;27;20027;-35
2024/01/05 00:07:15;;;;;;;16.40;3.37;;;;;;;7.08;100.00;99866.09;5123120;27;20024;-35
2024/01/05 00:09:40;;;;;;;11.65;3.28;;;;;;;7.10;100.00;99869.38;5116501;28;20061;-35
2024/01/05 00:12:06;;;;;;;10.37;3.00;;;;;;;7.16;100.00;99879.19;5117649;28;20099;-35
2024/01/05 00:14:31;;;;;;;11.57;3.00;;;;;;;7.17;100.00;99874.63;5116967;28;20468;-35
2024/01/05 00:16:59;;;;;;;11.23;3.33;;;;;;;7.16;100.00;99871.13;5117001;28;20024;-35
2024/01/05 00:19:25;;;;;;;11.88;3.53;;;;;;;7.13;100.00;99863.53;5116582;27;20297;-35
2024/01/05 00:21:51;;;;;;;11.37;2.90;;;;;;;7.03;100.00;99847.16;5117133;28;20094;-35
2024/01/05 00:24:16;;;;;;;11.75;3.22;;;;;;;7.07;100.00;99863.63;5116626;28;20257;-35
2024/01/05 00:26:42;;;;;;;15.10;2.93;;;;;;;7.08;100.00;99862.59;5116217;28;20030;-35
2024/01/05 00:29:07;;;;;;;12.23;2.92;;;;;;;7.09;100.00;99856.16;5117280;28;20055;-35
2024/01/05 00:31:32;;;;;;;9.87;2.73;;;;;;;7.09;100.00;99864.25;5116935;28;20023;-35
2024/01/05 00:33:58;;;;;;;12.40;3.90;;;;;;;7.11;100.00;99860.25;5116072;28;20278;-35
2024/01/05 00:36:23;;;;;;;9.43;2.60;;;;;;;7.13;100.00;99857.34;5116493;28;20359;-35
2024/01/05 00:38:49;;;;;;;9.67;2.70;;;;;;;7.15;100.00;99856.06;5116524;28;20037;-35
2024/01/05 00:41:14;;;;;;;8.53;2.80;;;;;;;7.15;100.00;99839.09;5117158;28;20031;-35
2024/01/05 00:43:40;;;;;;;11.43;2.50;;;;;;;7.09;100.00;99834.66;5116182;28;20452;-35
2024/01/05 00:46:05;;;;;;;11.18;3.47;;;;;;;7.20;100.00;99841.91;5116160;28;20443;-35
2024/01/05 00:48:31;;;;;;;11.97;2.93;;;;;;;7.20;100.00;99841.91;5116383;28;20077;-35
2024/01/05 00:50:56;;;;;;;10.93;2.83;;;;;;;7.22;100.00;99846.03;5116877;27;20019;-35
2024/01/05 00:53:21;;;;;;;10.33;3.37;;;;;;;7.23;100.00;99847.66;5116063;28;20080;-35
2024/01/05 00:55:47;;;;;;;8.63;2.23;;;;;;;7.23;100.00;99846.84;5116251;28;20098;-35
2024/01/05 00:58:12;;;;;;;14.23;3.87;;;;;;;7.16;100.00;99819.22;5115871;28;20059;-35
2024/01/05 01:00:37;;;;;;;12.55;3.45;;;;;;;7.26;100.00;99840.16;5116382;28;20055;-35
2024/01/05 01:03:03;;;;;;;14.87;3.70;;;;;;;7.27;100.00;99829.19;5115878;28;20098;-35
2024/01/05 01:05:29;;;;;;;10.30;2.95;;;;;;;7.28;100.00;99827.31;5115963;28;20102;-35
2024/01/05 01:07:54;;;;;;;12.83;3.00;;;;;;;7.29;100.00;99828.94;5115734;27;20031;-35
2024/01/05 01:10:19;;;;;;;14.70;3.13;;;;;;;7.30;100.00;99830.56;5115977;28;20108;-35
2024/01/05 01:12:44;;;;;;;11.67;3.40;;;;;;;7.29;100.00;99827.06;5115895;28;20412;-35
2024/01/05 01:15:10;;;;;;;12.13;3.00;;;;;;;7.23;100.00;99810.00;5115523;27;20471;-35
2024/01/05 01:17:35;;;;;;;14.20;2.88;;;;;;;7.31;100.00;99822.25;5115856;28;20027;-35
2024/01/05 01:20:01;;;;;;;13.38;3.05;;;;;;;7.27;100.00;99804.13;5114975;28;20019;-36
2024/01/05 01:22:26;;;;;;;11.13;2.90;;;;;;;7.32;100.00;99818.53;5115740;28;20015;-35
2024/01/05 01:24:52;;;;;;;10.97;2.53;;;;;;;7.33;100.00;99809.41;5115101;28;20051;-35
2024/01/05 01:27:17;;;;;;;9.23;2.87;;;;;;;7.35;100.00;99810.00;5116138;28;20051;-35
2024/01/05 01:29:43;;;;;;;11.97;3.00;;;;;;;7.38;100.00;99809.53;5115789;28;20022;-35
2024/01/05 01:32:09;;;;;;;9.30;2.65;;;;;;;7.28;100.00;99793.16;5115855;28;20098;-35
2024/01/05 01:34:35;;;;;;;11.88;3.72;;;;;;;7.39;100.00;99802.28;5115075;28;20030;-35
2024/01/05 01:37:00;;;;;;;9.85;3.42;;;;;;;7.39;100.00;99794.19;5115668;28;20031;-35
2024/01/05 01:39:26;;;;;;;8.07;2.40;;;;;;;7.39;100.00;99797.72;5115037;28;20019;-35
2024/01/05 01:41:51;;;;;;;11.93;3.17;;;;;;;7.41;100.00;99795.59;5114935;28;20314;-35
2024/01/05 01:44:16;;;;;;;8.07;2.80;;;;;;;7.42;100.00;99789.19;5114717;28;20024;-35
2024/01/05 01:46:42;;;;;;;11.10;3.17;;;;;;;7.42;100.00;99791.88;5114737;28;20048;-35
2024/01/05 01:49:07;;;;;;;9.27;2.47;;;;;;;7.42;100.00;99786.50;5114914;28;20030;-35
2024/01/05 01:51:34;;;;;;;9.25;2.42;;;;;;;7.44;100.00;99781.69;5115436;28;20122;-35
2024/01/05 01:54:00;;;;;;;14.65;2.42;;;;;;;7.42;100.00;99777.59;5115022;28;20019;-36
2024/01/05 01:56:25;;;;;;;6.30;1.98;;;;;;;7.45;100.00;99774.44;5115449;28;20050;-35
2024/01/05 01:58:51;;;;;;;9.88;3.45;;;;;;;7.30;100.00;99744.53;5114696;28;20026;-35
2024/01/05 02:01:17;;;;;;;10.07;2.30;;;;;;;7.46;100.00;99768.81;5115509;28;20111;-35
2024/01/05 02:03:43;;;;;;;11.82;2.55;;;;;;;7.44;100.00;99762.84;5114592;28;20020;-35
2024/01/05 02:06:08;;;;;;;8.45;2.42;;;;;;;7.44;100.00;99752.09;5114355;28;20419;-35
2024/01/05 02:08:34;;;;;;;7.47;2.33;;;;;;;7.44;100.00;99740.53;5115262;28;20081;-35
2024/01/05 02:10:59;;;;;;;8.23;2.00;;;;;;;7.43;100.00;99745.09;5114508;28;20254;-35
2024/01/05 02:13:24;;;;;;;7.13;2.13;;;;;;;7.41;100.00;99739.09;5114020;28;20020;-35
2024/01/05 02:15:50;;;;;;;8.27;1.90;;;;;;;7.34;100.00;99713.41;5114142;28;20019;-35
2024/01/05 02:18:15;;;;;;;8.33;2.17;;;;;;;7.34;100.00;99716.91;5114574;28;20266;-35
2024/01/05 02:20:44;;;;;;;8.95;2.35;;;;;;;7.41;100.00;99725.66;5114634;28;20042;-35
2024/01/05 02:23:23;;;;;;;10.23;2.20;;;;;;;7.40;100.00;99715.16;5114802;28;20015;-35
2024/01/05 02:25:48;;;;;;;8.77;2.20;;;;;;;7.36;100.00;99712.09;5114823;28;20102;-35
2024/01/05 02:28:14;;;;;;;9.82;2.10;;;;;;;7.34;100.00;99708.03;5114755;28;20111;-35
2024/01/05 02:30:39;;;;;;;7.63;1.75;;;;;;;7.32;100.00;99705.59;5113840;28;20111;-35
2024/01/05 02:33:05;;;;;;;6.80;2.03;;;;;;;7.32;100.00;99708.28;5114242;28;20019;-35
2024/01/05 02:35:30;;;;;;;9.23;2.10;;;;;;;7.29;100.00;99703.38;5114055;28;20037;-35
2024/01/05 02:37:55;;;;;;;9.03;2.43;;;;;;;7.29;100.00;99699.88;5114124;28;20023;-35
2024/01/05 02:40:20;;;;;;;9.63;2.17;;;;;;;7.27;100.00;99708.19;5114420;28;20019;-35
2024/01/05 02:42:46;;;;;;;8.13;2.27;;;;;;;7.27;100.00;99697.41;5114396;28;20355;-35
2024/01/05 02:45:12;;;;;;;6.93;2.22;;;;;;;7.26;100.00;99685.00;5113957;28;20032;-35
2024/01/05 02:47:37;;;;;;;7.97;1.93;;;;;;;7.30;100.00;99696.94;5113976;28;20030;-35
2024/01/05 02:50:03;;;;;;;6.70;1.77;;;;;;;7.31;100.00;99690.50;5114032;28;20280;-35
2024/01/05 02:52:28;;;;;;;7.82;2.25;;;;;;;7.32;100.00;99688.63;5113596;28;20013;-35
2024/01/05 02:54:54;;;;;;;8.13;1.67;;;;;;;7.31;100.00;99682.41;5113359;28;20026;-35
2024/01/05 02:57:19;;;;;;;6.97;1.63;;;;;;;7.33;100.00;99682.19;5114438;28;20011;-35
2024/01/05 02:59:44;;;;;;;7.23;2.43;;;;;;;7.17;100.00;99646.09;5113837;28;20261;-35
2024/01/05 03:02:10;;;;;;;6.83;1.80;;;;;;;7.34;100.00;99670.38;5114140;28;20106;-35
2024/01/05 03:04:35;;;;;;;9.50;1.70;;;;;;;7.34;100.00;99660.44;5113841;28;20051;-35
2024/01/05 03:07:00;;;;;;;9.27;1.80;;;;;;;7.35;100.00;99662.06;5113853;28;20027;-35
2024/01/05 03:09:26;;;;;;;6.77;2.00;;;;;;;7.31;100.00;99652.84;5113755;28;20030;-35
2024/01/05 03:11:51;;;;;;;6.10;1.80;;;;;;;7.38;100.00;99660.78;5113748;28;20020;-35
2024/01/05 03:14:16;;;;;;;8.20;1.83;;;;;;;7.31;100.00;99636.69;5113713;28;20024;-35
2024/01/05 03:16:42;;;;;;;6.23;2.07;;;;;;;7.36;100.00;99650.25;5113643;28;20463;-35
2024/01/05 03:19:07;;;;;;;6.27;1.53;;;;;;;7.36;100.00;99647.56;5113375;28;20045;-35
2024/01/05 03:21:32;;;;;;;5.93;1.53;;;;;;;7.37;100.00;99638.47;5113387;28;20016;-35
2024/01/05 03:23:57;;;;;;;7.13;2.20;;;;;;;7.32;100.00;99632.97;5114152;28;20065;-35
2024/01/05 03:26:23;;;;;;;5.23;1.67;;;;;;;7.36;100.00;99633.31;5114148;28;20057;-35
2024/01/05 03:28:48;;;;;;;7.10;2.03;;;;;;;7.36;100.00;99630.59;5113791;28;20019;-35
2024/01/05 03:31:13;;;;;;;5.30;1.50;;;;;;;7.36;100.00;99626.03;5113593;28;20456;-35
2024/01/05 03:33:40;;;;;;;5.83;2.30;;;;;;;7.31;100.00;99617.88;5113475;28;20024;-35
2024/01/05 03:36:05;;;;;;;;;;;;;;;7.39;100.00;99625.56;5113865;28;20053;-35
2024/01/05 03:38:30;;;;;;;7.15;1.90;;;;;;;7.35;100.00;99613.66;5113360;28;20398;-35
2024/01/05 03:40:56;;;;;;;6.23;2.13;;;;;;;7.34;100.00;99617.41;5113538;28;20038;-35
2024/01/05 03:43:21;;;;;;;4.63;1.40;;;;;;;7.34;100.00;99617.41;5116503;28;20363;-35
2024/01/05 03:45:47;;;;;;;6.73;1.70;;;;;;;7.33;100.00;99605.03;5117468;28;20364;-35
2024/01/05 03:48:14;;;;;;;6.50;1.60;;;;;;;7.33;100.00;99610.41;5117185;28;20035;-35
2024/01/05 03:50:39;;;;;;;9.40;1.90;;;;;;;7.29;100.00;99597.69;5117828;28;20468;-35
2024/01/05 03:53:05;;;;;;;5.28;1.60;;;;;;;7.34;100.00;99590.53;5117187;27;20034;-35
2024/01/05 03:55:30;;;;;;;7.93;1.80;;;;;;;7.26;100.00;99577.44;5116918;28;20056;-35
2024/01/05 03:57:56;;;;;;;7.55;1.92;;;;;;;7.33;100.00;99583.50;5117694;28;20418;-35
2024/01/05 04:00:22;;;;;;;5.83;2.37;;;;;;;7.34;100.00;99574.38;5117028;28;20028;-35
2024/01/05 04:02:47;;;;;;;5.38;1.40;;;;;;;7.34;100.00;99584.31;5117560;28;20258;-35
2024/01/05 04:05:13;;;;;;;6.18;1.70;;;;;;;7.31;100.00;99579.41;5117734;28;20470;-35
2024/01/05 04:07:38;;;;;;;4.77;1.33;;;;;;;7.31;100.00;99571.34;5117142;28;20051;-35
2024/01/05 04:10:05;;;;;;;4.63;1.50;;;;;;;7.23;100.00;99561.81;5116885;28;20020;-35
2024/01/05 04:12:31;;;;;;;3.97;1.35;;;;;;;7.29;100.00;99563.53;5116774;27;20257;-35
2024/01/05 04:14:56;;;;;;;6.07;1.80;;;;;;;7.31;100.00;99564.09;5116468;28;20019;-35
2024/01/05 04:17:21;;;;;;;4.47;1.87;;;;;;;7.30;100.00;99567.03;5117025;28;20073;-35
2024/01/05 04:19:47;;;;;;;6.37;2.40;;;;;;;7.31;100.00;99561.41;5116986;28;20034;-35
2024/01/05 04:22:12;;;;;;;4.72;1.40;;;;;;;7.29;100.00;99555.47;5116687;28;20020;-35
2024/01/05 04:24:38;;;;;;;7.63;2.53;;;;;;;7.28;100.00;99553.84;5116356;28;20031;-35
2024/01/05 04:27:03;;;;;;;5.63;2.40;;;;;;;7.27;100.00;99546.84;5117105;28;20333;-35
2024/01/05 04:29:28;;;;;;;6.80;2.80;;;;;;;7.26;100.00;99539.00;5116678;28;20140;-35
2024/01/05 04:31:54;;;;;;;9.63;2.40;;;;;;;7.23;100.00;99543.00;5117260;28;20048;-35
2024/01/05 04:34:19;;;;;;;4.77;1.80;;;;;;;7.23;100.00;99530.38;5116640;28;20046;-35
2024/01/05 04:36:45;;;;;;;7.27;2.47;;;;;;;7.21;100.00;99526.25;5117023;28;20277;-35
2024/01/05 04:39:10;;;;;;;5.90;1.83;;;;;;;7.22;100.00;99522.50;5116812;28;20072;-35
2024/01/05 04:41:36;;;;;;;4.87;1.93;;;;;;;7.19;100.00;99521.13;5117092;28;20114;-35
2024/01/05 04:44:01;;;;;;;7.35;2.22;;;;;;;7.20;100.00;99519.25;5116266;28;20103;-35
2024/01/05 04:46:26;;;;;;;7.60;2.57;;;;;;;7.19;100.00;99515.75;5117012;28;20038;-35
2024/01/05 04:48:52;;;;;;;5.07;1.87;;;;;;;7.20;100.00;99509.31;5116245;28;20411;-35
2024/01/05 04:51:17;;;;;;;9.57;2.60;;;;;;;7.04;100.00;99482.41;5115901;28;20379;-35
2024/01/05 04:53:42;;;;;;;5.70;2.17;;;;;;;7.19;100.00;99498.81;5115946;28;20016;-35
2024/01/05 04:56:08;;;;;;;8.13;2.20;;;;;;;7.12;100.00;99490.06;5116839;28;20047;-35
2024/01/05 04:58:33;;;;;;;3.80;1.70;;;;;;;7.17;100.00;99498.22;5115648;28;20054;-35
2024/01/05 05:00:58;;;;;;;6.83;2.33;;;;;;;7.19;100.00;99480.81;5115688;28;20459;-35
2024/01/05 05:03:26;;;;;;;8.43;2.47;;;;;;;7.17;100.00;99482.09;5115600;28;20465;-35
2024/01/05 05:05:51;;;;;;;7.70;1.95;;;;;;;7.16;100.00;99480.47;5115749;28;20060;-35
2024/01/05 05:08:16;;;;;;;5.53;1.60;;;;;;;7.16;100.00;99480.47;5115676;28;20019;-35
2024/01/05 05:10:42;;;;;;;5.13;1.40;;;;;;;7.13;100.00;99476.41;5116316;28;20027;-35
2024/01/05 05:13:07;;;;;;;7.75;2.08;;;;;;;7.13;100.00;99470.22;5115383;28;20022;-35
2024/01/05 05:15:33;;;;;;;5.50;1.80;;;;;;;6.95;100.00;99441.66;5115567;28;20111;-35
2024/01/05 05:17:58;;;;;;;3.80;1.33;;;;;;;7.11;100.00;99473.13;5115348;28;20020;-35
2024/01/05 05:20:23;;;;;;;4.87;1.40;;;;;;;7.12;100.00;99469.38;5115769;28;20344;-35
2024/01/05 05:22:48;;;;;;;5.23;1.57;;;;;;;7.12;100.00;99473.94;5115782;28;20333;-35
2024/01/05 05:25:14;;;;;;;5.50;1.30;;;;;;;7.11;100.00;99478.50;5115715;28;20433;-35
2024/01/05 05:27:39;;;;;;;5.63;1.37;;;;;;;7.09;100.00;99475.25;5115113;28;20058;-35
2024/01/05 05:30:06;;;;;;;8.60;1.37;;;;;;;7.09;100.00;99469.06;5116105;28;20072;-35
2024/01/05 05:32:31;;;;;;;4.07;1.10;;;;;;;7.12;100.00;99468.56;5115300;28;20463;-35
2024/01/05 05:34:57;;;;;;;6.93;1.50;;;;;;;7.10;100.00;99465.31;5115131;28;20023;-35
2024/01/05 05:37:22;;;;;;;5.57;1.23;;;;;;;7.14;100.00;99469.16;5115169;28;20085;-35
2024/01/05 05:39:48;;;;;;;5.27;1.63;;;;;;;7.17;100.00;99469.50;5115619;28;20265;-35
2024/01/05 05:42:13;;;;;;;7.40;2.30;;;;;;;7.20;100.00;99465.50;5115872;28;20039;-35
2024/01/05 05:44:38;;;;;;;5.57;1.50;;;;;;;7.20;100.00;99471.69;5115006;28;20016;-35
2024/01/05 05:47:03;;;;;;;4.13;1.20;;;;;;;7.23;100.00;99465.03;5115345;28;20477;-35
2024/01/05 05:49:29;;;;;;;4.20;1.47;;;;;;;7.25;100.00;99468.28;5115175;28;20027;-35
2024/01/05 05:51:54;;;;;;;5.50;1.60;;;;;;;7.26;100.00;99464.50;5115204;28;20020;-35
2024/01/05 05:54:20;;;;;;;7.22;1.30;;;;;;;7.30;100.00;99473.72;5114805;28;20085;-35
2024/01/05 05:56:45;;;;;;;5.40;1.53;;;;;;;7.16;100.00;99438.28;5115228;28;20043;-35
2024/01/05 05:59:11;;;;;;;4.77;1.30;;;;;;;7.36;100.00;99463.88;5114466;28;20444;-35
2024/01/05 06:01:36;;;;;;;4.13;1.23;;;;;;;7.30;100.00;99459.47;5115044;28;20042;-35
2024/01/05 06:04:01;;;;;;;4.47;1.47;;;;;;;7.32;100.00;99460.88;5114614;28;20023;-35
2024/01/05 06:06:27;;;;;;;2.10;0.80;;;;;;;7.42;100.00;99471.81;5114716;28;20019;-35
2024/01/05 06:08:53;;;;;;;1.55;0.60;;;;;;;7.43;100.00;99480.69;5114788;28;20261;-35
2024/01/05 06:11:19;;;;;;;1.73;0.60;;;;;;;7.46;100.00;99477.50;5114541;28;20448;-35
2024/01/05 06:13:45;;;;;;;3.67;0.70;;;;;;;7.48;100.00;99486.97;5115025;28;20023;-35
2024/01/05 06:16:11;;;;;;;1.42;0.50;;;;;;;7.53;100.00;99480.84;5114745;28;20080;-35
2024/01/05 06:18:37;;;;;;;1.02;0.40;;;;;;;7.57;100.00;99492.75;5114454;28;20016;-35
2024/01/05 06:21:03;;;;;;;0.65;0.40;;;;;;;7.58;100.00;99478.25;5114104;28;20076;-35
2024/01/05 06:23:29;;;;;;;1.05;0.32;;;;;;;7.48;100.00;99473.50;5114641;28;20028;-35
2024/01/05 06:25:54;;;;;;;1.73;0.50;;;;;;;7.57;100.00;99479.31;5114064;28;20371;-35
2024/01/05 06:28:19;;;;;;;1.87;0.40;;;;;;;7.54;100.00;99482.47;5113958;28;20281;-35
2024/01/05 06:30:45;;;;;;;0.30;0.20;;;;;;;7.51;100.00;99487.53;5114527;28;20262;-35
2024/01/05 06:33:10;;;;;;;2.55;0.63;;;;;;;7.48;100.00;99481.59;5113882;28;20152;-35
2024/01/05 06:35:36;;;;;;;0.85;0.30;;;;;;;7.47;100.00;99482.66;5114627;28;20140;-35
2024/01/05 06:38:01;;;;;;;0.30;0.20;;;;;;;7.40;100.00;99473.91;5114695;28;20027;-35
2024/01/05 06:40:26;;;;;;;0.93;0.87;;;;;;;7.42;100.00;99482.56;5114174;28;20107;-35
2024/01/05 06:42:52;;;;;;;0.77;0.30;;;;;;;7.42;100.00;99496.00;5114362;28;20651;-35
2024/01/05 06:45:18;;;;;;;0.73;0.30;;;;;;;7.39;100.00;99485.72;5113578;28;20115;-35
2024/01/05 06:47:43;;;;;;;1.73;0.30;;;;;;;7.39;100.00;99479.53;5114252;28;20047;-35
2024/01/05 06:50:09;;;;;;;1.92;0.28;;;;;;;7.40;100.00;99490.03;5113908;28;20439;-35
2024/01/05 06:52:34;;;;;;;0.28;0.25;;;;;;;7.40;100.00;99484.66;5114498;28;20436;-35
2024/01/05 06:55:00;;;;;;;1.07;0.30;;;;;;;7.39;100.00;99485.72;5114204;28;20019;-35
2024/01/05 06:57:28;;;;;;;0.63;0.30;;;;;;;7.31;100.00;99475.34;5114917;28;20051;-35
2024/01/05 06:59:53;;;;;;;1.33;0.60;;;;;;;7.37;100.00;99501.31;5114192;28;20035;-35
2024/01/05 07:02:19;;;;;;;0.60;0.20;;;;;;;7.37;100.00;99501.31;5114415;28;20499;-35
2024/01/05 07:04:44;;;;;;;0.80;0.40;;;;;;;7.38;100.00;99489.47;5114095;28;20050;-35
2024/01/05 07:07:09;;;;;;;0.50;0.30;;;;;;;7.38;100.00;99486.78;5113975;28;20027;-35
2024/01/05 07:09:35;;;;;;;0.97;0.30;;;;;;;7.40;100.00;99490.03;5113481;28;20664;-35
2024/01/05 07:12:00;;;;;;;1.17;0.30;;;;;;;7.40;100.00;99492.72;5114323;28;20019;-35
2024/01/05 07:14:27;;;;;;;0.47;0.30;;;;;;;7.35;100.00;99481.06;5114048;28;20023;-35
2024/01/05 07:16:56;;;;;;;0.55;0.47;;;;;;;7.35;100.00;99486.44;5115136;28;20020;-35
2024/01/05 07:19:21;;;;;;;0.50;0.20;;;;;;;7.35;100.00;99491.81;5117765;28;20073;-35
2024/01/05 07:21:47;;;;;;;0.55;0.30;;;;;;;7.33;100.00;99486.72;5117884;28;20031;-35
2024/01/05 07:24:15;;;;;;;1.17;0.30;;;;;;;7.32;100.00;99485.09;5117964;27;20470;-35
2024/01/05 07:26:41;;;;;;;0.90;0.38;;;;;;;7.23;100.00;99473.09;5117717;28;20084;-35
2024/01/05 07:29:06;;;;;;;0.30;0.30;;;;;;;7.17;100.00;99461.44;5117445;28;20020;-36
2024/01/05 07:31:32;;;;;;;0.20;0.20;;;;;;;7.25;100.00;99483.59;5117710;28;20034;-35
2024/01/05 07:33:57;;;;;;;1.13;0.40;;;;;;;7.19;100.00;99488.88;5117253;28;20024;-36
2024/01/05 07:36:22;;;;;;;1.13;0.37;;;;;;;7.14;100.00;99494.16;5117450;28;20023;-36
2024/01/05 07:38:48;;;;;;;0.65;0.40;;;;;;;7.05;100.00;99489.41;5117950;28;20030;-36
2024/01/05 07:41:18;;;;;;;0.80;0.20;;;;;;;7.02;100.00;99490.69;5117700;28;20026;-35
2024/01/05 07:43:43;;;;;;;1.23;0.32;;;;;;;6.89;100.00;99488.31;5117424;28;20081;-36
2024/01/05 07:46:09;;;;;;;0.82;0.30;;;;;;;6.90;100.00;99496.13;5117439;28;20023;-35
2024/01/05 07:48:34;;;;;;;0.30;0.30;;;;;;;6.87;100.00;99499.28;5117365;28;20019;-36
2024/01/05 07:51:03;;;;;;;0.97;0.20;;;;;;;6.69;100.00;99480.69;5117297;28;20662;-36
2024/01/05 07:53:29;;;;;;;1.23;0.30;;;;;;;6.77;100.00;99493.72;5117311;28;20475;-35
2024/01/05 07:55:54;;;;;;;0.88;0.30;;;;;;;6.66;100.00;99495.41;5116678;27;20040;-36
2024/01/05 07:58:19;;;;;;;0.93;0.30;;;;;;;6.65;100.00;99507.19;5117178;27;20036;-36
2024/01/05 08:00:45;;;;;;;6.45;0.43;;;;;;;6.59;100.00;99504.66;5117421;28;20024;-36
2024/01/05 08:03:11;;;;;;;0.25;0.20;;;;;;;6.50;100.00;99489.97;5117007;28;20050;-35
2024/01/05 08:05:37;;;;;;;0.68;0.40;;;;;;;6.54;100.00;99500.00;5117005;28;20020;-35
2024/01/05 08:08:02;;;;;;;0.45;0.30;;;;;;;6.49;100.00;99496.38;5117798;28;20388;-36
2024/01/05 08:10:30;;;;;;;1.25;0.40;;;;;;;6.50;100.00;99498.03;5116910;28;20103;-36
2024/01/05 08:12:55;;;;;;;0.95;0.50;;;;;;;6.48;100.00;99494.72;5117405;28;20100;-41
2024/01/05 08:15:21;;;;;;;2.90;0.50;;;;;;;6.43;100.00;99495.44;5116751;28;20070;-36
2024/01/05 08:17:46;;;;;;;0.70;0.30;;;;;;;6.42;100.00;99494.63;5117087;28;20463;-35
2024/01/05 08:20:12;;;;;;;1.23;0.40;;;;;;;6.41;100.00;99490.31;5117010;28;20033;-36
2024/01/05 08:22:37;;;;;;;1.08;0.70;;;;;;;6.39;100.00;99486.22;5117514;28;20030;-36
2024/01/05 08:25:03;;;;;;;1.50;0.73;;;;;;;6.44;100.00;99499.75;5116304;28;20098;-36
2024/01/05 08:27:29;;;;;;;1.58;0.70;;;;;;;6.44;100.00;99494.38;5116641;28;20258;-36
2024/01/05 08:29:55;;;;;;;0.60;0.47;;;;;;;6.40;100.00;99491.38;5116187;28;20417;-35
2024/01/05 08:32:20;;;;;;;2.17;0.50;;;;;;;6.40;100.00;99494.06;5116176;28;20085;-36
2024/01/05 08:34:46;;;;;;;2.25;0.57;;;;;;;6.38;100.00;99500.72;5116409;28;20057;-36
2024/01/05 08:37:11;;;;;;;1.13;0.80;;;;;;;6.35;100.00;99496.66;5116493;28;20073;-35
2024/01/05 08:39:39;;;;;;;0.67;0.47;;;;;;;6.31;100.00;99500.03;5116581;28;20091;-36
2024/01/05 08:42:06;;;;;;;0.90;0.40;;;;;;;6.24;100.00;99500.13;5116007;28;20016;-36
2024/01/05 08:44:32;;;;;;;0.77;0.45;;;;;;;6.14;100.00;99484.63;5116456;28;20055;-36
2024/01/05 08:46:57;;;;;;;;;;;;;;;6.26;100.00;99499.94;5117487;28;20389;-36
2024/01/05 08:49:23;;;;;;;1.08;0.47;;;;;;;6.14;100.00;99511.47;5116100;28;19904;-36
2024/01/05 08:51:48;;;;;;;2.25;0.73;;;;;;;6.05;100.00;99502.16;5116394;28;20076;-36
2024/01/05 08:54:14;;;;;;;1.20;0.70;;;;;;;5.98;100.00;99500.63;5116619;28;20020;-36
2024/01/05 08:56:39;;;;;;;0.97;0.50;;;;;;;5.97;100.00;99499.00;5116957;28;20047;-36
2024/01/05 08:59:05;;;;;;;0.73;0.40;;;;;;;5.90;100.00;99499.06;5116023;28;20362;-36
2024/01/05 09:01:32;;;;;;;1.50;0.40;;;;;;;5.89;100.00;99514.34;5116459;28;20034;-36
2024/01/05 09:03:58;;;;;;;0.65;0.40;;;;;;;5.83;100.00;99517.97;5116155;28;20028;-36
2024/01/05 09:06:23;;;;;;;1.20;0.43;;;;;;;5.78;100.00;99517.84;5115859;27;20031;-36
2024/01/05 09:08:49;;;;;;;1.07;0.50;;;;;;;5.75;100.00;99528.22;5115583;28;20487;-36
2024/01/05 09:11:14;;;;;;;1.48;0.50;;;;;;;5.60;100.00;99512.56;5116060;28;20113;-36
2024/01/05 09:13:39;;;;;;;0.57;0.45;;;;;;;5.67;100.00;99532.09;5115654;28;20019;-36
2024/01/05 09:16:05;;;;;;;0.40;0.40;;;;;;;5.49;100.00;99508.03;5115300;28;20053;-36
2024/01/05 09:18:33;;;;;;;0.77;0.43;;;;;;;5.53;100.00;99525.28;5115916;28;20023;-36
2024/01/05 09:21:02;;;;;;;0.30;0.20;;;;;;;5.47;100.00;99523.53;5115275;28;20016;-36
2024/01/05 09:23:28;;;;;;;0.35;0.30;;;;;;;5.46;100.00;99535.28;5115204;28;20062;-36
2024/01/05 09:25:54;;;;;;;1.08;0.30;;;;;;;5.35;100.00;99532.34;5115708;28;20055;-36
2024/01/05 09:28:19;;;;;;;1.00;0.30;;;;;;;5.39;100.00;99533.53;5115085;28;20495;-36
2024/01/05 09:30:45;;;;;;;0.73;0.30;;;;;;;5.38;100.00;99539.94;5115918;28;20023;-36
2024/01/05 09:33:10;;;;;;;0.70;0.30;;;;;;;5.31;100.00;99533.84;5115263;28;20257;-36
2024/01/05 09:35:36;;;;;;;2.15;0.45;;;;;;;5.35;100.00;99548.44;5115973;28;20026;-36
2024/01/05 09:38:01;;;;;;;1.00;0.40;;;;;;;5.36;100.00;99539.31;5115229;28;20363;-36
2024/01/05 09:40:27;;;;;;;1.27;0.57;;;;;;;5.37;100.00;99546.34;5115079;28;20250;-36
2024/01/05 09:42:57;;;;;;;1.35;0.55;;;;;;;5.39;100.00;99546.09;5115628;28;20016;-36
2024/01/05 09:45:24;;;;;;;1.83;0.63;;;;;;;5.36;100.00;99550.06;5115228;28;20027;-36
2024/01/05 09:47:50;;;;;;;1.10;0.60;;;;;;;5.42;100.00;99551.84;5115265;28;20061;-36
2024/01/05 09:50:16;;;;;;;1.55;0.70;;;;;;;5.43;100.00;99556.16;5115208;28;20058;-36
2024/01/05 09:52:43;;;;;;;3.28;1.33;;;;;;;5.36;100.00;99535.84;5115727;28;20059;-36
2024/01/05 09:55:08;;;;;;;0.80;0.50;;;;;;;5.45;100.00;99555.91;5114441;28;20034;-36
2024/01/05 09:57:36;;;;;;;2.60;0.68;;;;;;;5.39;100.00;99548.78;5115578;28;20123;-36
2024/01/05 10:00:03;;;;;;;2.00;0.68;;;;;;;5.47;100.00;99542.31;5114733;27;20023;-36
2024/01/05 10:02:36;;;;;;;1.85;1.00;;;;;;;5.53;100.00;99555.59;5115036;28;20367;-36
2024/01/05 10:05:02;;;;;;;1.88;0.68;;;;;;;5.56;100.00;99551.63;5114440;28;20106;-36
2024/01/05 10:07:27;;;;;;;1.75;0.65;;;;;;;5.60;100.00;99550.13;5114723;28;20106;-36
2024/01/05 10:09:54;;;;;;;1.97;0.60;;;;;;;5.55;100.00;99540.09;5114544;28;20027;-36
2024/01/05 10:12:19;;;;;;;1.30;0.60;;;;;;;5.69;100.00;99554.91;5114292;28;20257;-36
2024/01/05 10:14:46;;;;;;;1.42;0.60;;;;;;;5.73;100.00;99552.59;5114773;28;20043;-36
2024/01/05 10:17:13;;;;;;;1.60;0.70;;;;;;;5.71;100.00;99538.63;5115221;28;20023;-36
2024/01/05 10:19:41;;;;;;;2.97;1.00;;;;;;;5.79;100.00;99553.53;5114664;28;20448;-36
2024/01/05 10:22:14;;;;;;;1.50;0.90;;;;;;;5.83;100.00;99549.34;5115204;28;20034;-36
2024/01/05 10:24:40;;;;;;;2.45;0.80;;;;;;;5.80;100.00;99547.13;5114338;28;20027;-36
2024/01/05 10:27:11;;;;;;;2.35;0.80;;;;;;;5.76;100.00;99545.94;5114604;28;20023;-36
2024/01/05 10:29:44;;;;;;;2.10;1.42;;;;;;;5.69;100.00;99540.69;5114249;28;20482;-36
2024/01/05 10:32:12;;;;;;;1.33;0.77;;;;;;;5.78;100.00;99546.56;5114321;28;20050;-36
2024/01/05 10:34:46;;;;;;;1.95;0.85;;;;;;;5.62;100.00;99518.53;5114666;28;20098;-36
2024/01/05 10:37:12;;;;;;;2.03;0.70;;;;;;;5.81;100.00;99546.91;5114108;28;20369;-36
2024/01/05 10:39:38;;;;;;;;;;;;;;;5.88;100.00;99549.47;5115051;28;20032;-36
2024/01/05 10:42:22;;;;;;;1.17;0.70;;;;;;;5.86;100.00;99549.72;5114643;28;20289;-36
2024/01/05 10:44:53;;;;;;;2.40;0.90;;;;;;;5.89;100.00;99556.47;5113976;28;20110;-36
2024/01/05 10:47:25;;;;;;;1.25;0.77;;;;;;;5.93;100.00;99553.13;5114830;28;20031;-36
2024/01/05 10:49:52;;;;;;;1.40;0.77;;;;;;;6.00;100.00;99554.88;5113976;28;20020;-36
2024/01/05 10:52:20;;;;;;;1.58;0.68;;;;;;;6.00;100.00;99546.81;5113562;28;20031;-36
2024/01/05 10:54:47;;;;;;;2.67;1.15;;;;;;;6.04;100.00;99559.53;5113838;28;20081;-36
2024/01/05 10:57:14;;;;;;;2.03;1.08;;;;;;;6.05;100.00;99555.00;5113660;28;20081;-36
2024/01/05 10:59:50;;;;;;;2.10;0.80;;;;;;;6.09;100.00;99566.91;5113876;28;20027;-36
2024/01/05 11:02:34;;;;;;;1.80;0.67;;;;;;;6.04;100.00;99543.44;5114683;28;20411;-36
2024/01/05 11:05:07;;;;;;;1.35;0.80;;;;;;;6.16;100.00;99557.69;5114063;28;20613;-36
2024/01/05 11:07:33;;;;;;;2.00;0.80;;;;;;;6.09;100.00;99540.06;5113755;28;20031;-36
2024/01/05 11:10:18;;;;;;;2.88;1.50;;;;;;;6.18;100.00;99549.41;5114066;28;20024;-36
2024/01/05 11:13:14;;;;;;;1.17;0.77;;;;;;;6.18;100.00;99560.13;5114243;28;20168;-36
2024/01/05 11:15:58;;;;;;;2.70;1.55;;;;;;;6.15;100.00;99566.81;5113740;28;20068;-36
2024/01/05 11:18:38;;;;;;;2.75;1.13;;;;;;;6.16;100.00;99567.63;5114526;28;20352;-36
2024/01/05 11:21:20;;;;;;;1.80;0.80;;;;;;;6.02;100.00;99525.97;5113908;28;20012;-36
2024/01/05 11:23:47;;;;;;;1.38;0.70;;;;;;;6.16;100.00;99556.88;5114047;28;20442;-36
2024/01/05 11:26:34;;;;;;;1.17;0.57;;;;;;;6.15;100.00;99564.13;5114343;28;20114;-36
2024/01/05 11:29:00;;;;;;;1.25;0.75;;;;;;;6.13;100.00;99555.47;5113659;28;20112;-36
2024/01/05 11:31:47;;;;;;;1.50;0.70;;;;;;;6.16;100.00;99559.56;5113664;28;20104;-36